Time;durP1;ratioP1;P1;durP2;ratioP2;P2;SDS_P1;SDS_P2;PMS_P1;PMS_P2;Temp;Humidity;BMP_temperature;BMP_pressure;BME280_temperature;BME280_humidity;BME280_pressure;Samples;Min_cycle;Max_cycle;Signal;HPM_P1;HPM_P2
2024/01/24 00:01:15;;;;;;;1.33;0.70;;;11.10;75.90;9.90;97257.00;;;;5078401;28;20188;-81
2024/01/24 00:03:42;;;;;;;4.53;1.20;;;11.10;75.90;9.90;97261.00;;;;5075126;28;20567;-81
2024/01/24 00:06:09;;;;;;;8.73;0.77;;;11.10;76.00;9.90;97260.00;;;;5073626;28;20264;-81
2024/01/24 00:08:39;;;;;;;4.73;0.73;;;11.10;76.00;9.90;97254.00;;;;5078004;28;20246;-81
2024/01/24 00:11:06;;;;;;;0.80;0.40;;;11.10;76.00;9.90;97264.00;;;;5078221;28;20196;-81
2024/01/24 00:13:34;;;;;;;1.20;0.60;;;11.20;76.00;10.00;97267.00;;;;5080872;28;20219;-81
2024/01/24 00:16:04;;;;;;;0.70;0.50;;;11.20;76.00;10.00;97283.00;;;;5078528;28;20250;-81
2024/01/24 00:18:31;;;;;;;2.37;0.57;;;11.20;75.90;10.00;97291.00;;;;5069998;28;20405;-81
2024/01/24 00:20:58;;;;;;;0.60;0.50;;;11.30;76.10;10.00;97297.00;;;;5077813;28;20248;-81
2024/01/24 00:23:26;;;;;;;3.83;0.50;;;11.30;76.30;10.00;97270.00;;;;5080978;28;20192;-81
2024/01/24 00:25:53;;;;;;;2.27;0.50;;;11.30;76.50;10.00;97242.00;;;;5078082;28;20223;-81
2024/01/24 00:28:26;;;;;;;2.90;0.50;;;11.30;77.40;10.00;97246.00;;;;5076315;28;20223;-81
2024/01/24 00:30:54;;;;;;;0.50;0.40;;;11.30;76.60;10.00;97229.00;;;;5077961;28;20222;-81
2024/01/24 00:33:25;;;;;;;1.17;0.43;;;11.30;76.70;10.00;97234.00;;;;5082384;28;20192;-81
2024/01/24 00:35:53;;;;;;;1.23;0.43;;;11.30;76.80;10.00;97229.00;;;;5075410;28;20194;-81
2024/01/24 00:38:20;;;;;;;1.80;0.50;;;11.30;76.90;10.00;97230.00;;;;5075739;28;20333;-81
2024/01/24 00:40:47;;;;;;;12.77;1.30;;;11.30;76.90;10.00;97226.00;;;;5075340;28;20184;-82
2024/01/24 00:43:15;;;;;;;2.77;0.87;;;11.30;77.10;10.10;97228.00;;;;5075114;28;20278;-81
2024/01/24 00:45:43;;;;;;;3.17;0.47;;;11.30;77.30;10.10;97219.00;;;;5071669;28;20257;-81
2024/01/24 00:48:10;;;;;;;1.13;0.40;;;11.30;77.20;10.10;97214.00;;;;5072379;28;20243;-82
2024/01/24 00:50:38;;;;;;;0.93;0.33;;;11.30;77.30;10.10;97205.00;;;;5072033;28;20279;-81
2024/01/24 00:53:06;;;;;;;0.63;0.50;;;11.30;77.20;10.10;97208.00;;;;5073074;28;20179;-81
2024/01/24 00:55:34;;;;;;;0.40;0.23;;;11.40;77.30;10.10;97214.00;;;;5071188;28;20275;-81
2024/01/24 00:58:01;;;;;;;9.00;1.17;;;11.30;77.20;10.10;97212.00;;;;5071521;28;20269;-81
2024/01/24 01:00:28;;;;;;;5.53;0.60;;;11.40;77.40;10.10;97206.00;;;;5066097;28;20212;-81
2024/01/24 01:02:56;;;;;;;0.23;0.23;;;11.40;77.70;10.10;97199.00;;;;5076395;28;20207;-81
2024/01/24 01:05:24;;;;;;;1.43;0.40;;;11.40;77.70;10.10;97210.00;;;;5074888;28;20644;-81
2024/01/24 01:07:53;;;;;;;1.90;0.40;;;11.40;77.80;10.20;97222.00;;;;5077824;28;20698;-82
2024/01/24 01:10:20;;;;;;;7.20;0.70;;;11.40;77.70;10.20;97196.00;;;;5079529;28;20235;-81
2024/01/24 01:12:48;;;;;;;0.50;0.40;;;11.40;77.70;10.20;97189.00;;;;5074838;28;20250;-82
2024/01/24 01:15:15;;;;;;;10.40;1.13;;;11.40;77.70;10.20;97186.00;;;;5073055;28;20216;-82
2024/01/24 01:17:42;;;;;;;3.40;0.67;;;11.50;77.70;10.20;97174.00;;;;5074924;28;20219;-81
2024/01/24 01:20:11;;;;;;;2.97;0.60;;;11.40;77.80;10.30;97172.00;;;;5073851;28;20227;-81
2024/01/24 01:22:40;;;;;;;0.50;0.27;;;11.50;77.70;10.30;97177.00;;;;5078373;28;20196;-81
2024/01/24 01:25:10;;;;;;;1.77;0.40;;;11.50;77.60;10.30;97183.00;;;;5075173;28;20207;-81
2024/01/24 01:27:37;;;;;;;3.20;0.30;;;11.50;77.70;10.30;97197.00;;;;5074835;28;20184;-81
2024/01/24 01:30:06;;;;;;;0.50;0.23;;;11.50;77.80;10.30;97190.00;;;;5074402;28;20219;-81
2024/01/24 01:32:33;;;;;;;0.80;0.20;;;11.50;77.80;10.30;97182.00;;;;5077714;28;20210;-81
2024/01/24 01:35:01;;;;;;;0.50;0.20;;;11.60;77.60;10.30;97195.00;;;;5075012;28;20195;-81
2024/01/24 01:37:28;;;;;;;0.27;0.27;;;11.60;77.60;10.40;97190.00;;;;5078293;28;20278;-82
2024/01/24 01:39:55;;;;;;;0.20;0.20;;;11.60;77.60;10.40;97169.00;;;;5074633;28;20620;-81
2024/01/24 01:42:24;;;;;;;1.13;0.40;;;11.60;77.70;10.40;97140.00;;;;5074480;28;20215;-81
2024/01/24 01:44:52;;;;;;;0.50;0.20;;;11.60;77.50;10.40;97148.00;;;;5074852;28;20208;-81
2024/01/24 01:47:21;;;;;;;1.07;0.40;;;11.60;77.60;10.40;97140.00;;;;5074579;28;20623;-81
2024/01/24 01:49:48;;;;;;;0.60;0.40;;;11.60;77.50;10.50;97139.00;;;;5073293;28;20231;-81
2024/01/24 01:52:20;;;;;;;1.50;0.40;;;11.70;77.50;10.50;97117.00;;;;5074768;28;20227;-81
2024/01/24 01:54:49;;;;;;;0.97;0.30;;;11.70;77.30;10.50;97106.00;;;;5073801;28;20547;-81
2024/01/24 01:57:17;;;;;;;0.57;0.30;;;11.70;77.30;10.50;97110.00;;;;5072497;28;20322;-81
2024/01/24 01:59:46;;;;;;;0.63;0.33;;;11.70;77.20;10.50;97109.00;;;;5074159;28;20280;-81
2024/01/24 02:02:15;;;;;;;0.20;0.20;;;11.70;77.00;10.50;97108.00;;;;5072621;28;20639;-81
2024/01/24 02:04:42;;;;;;;0.40;0.30;;;11.70;77.00;10.50;97112.00;;;;5072740;28;20188;-81
2024/01/24 02:07:09;;;;;;;0.63;0.30;;;11.70;76.90;10.50;97100.00;;;;5073879;28;20634;-81
2024/01/24 02:09:36;;;;;;;0.30;0.20;;;11.80;76.90;10.60;97111.00;;;;5071025;28;20312;-81
2024/01/24 02:12:04;;;;;;;0.47;0.40;;;11.80;77.00;10.60;97101.00;;;;5078451;28;20238;-81
2024/01/24 02:14:32;;;;;;;0.20;0.20;;;11.80;76.90;10.60;97100.00;;;;5083461;28;20271;-81
2024/01/24 02:17:00;;;;;;;0.33;0.23;;;11.80;76.80;10.70;97095.00;;;;5076495;28;20188;-81
2024/01/24 02:19:28;;;;;;;0.27;0.10;;;11.80;76.80;10.70;97088.00;;;;5074163;28;20219;-81
2024/01/24 02:21:55;;;;;;;0.27;0.20;;;11.90;76.70;10.70;97093.00;;;;5074422;28;20195;-81
2024/01/24 02:24:24;;;;;;;0.30;0.20;;;11.90;76.70;10.80;97084.00;;;;5076787;28;20222;-81
2024/01/24 02:26:51;;;;;;;0.23;0.10;;;12.00;76.70;10.90;97082.00;;;;5076882;28;20275;-81
2024/01/24 02:29:18;;;;;;;0.33;0.20;;;12.00;76.60;10.90;97076.00;;;;5077831;28;20270;-81
2024/01/24 02:31:46;;;;;;;0.33;0.10;;;12.00;76.50;11.00;97079.00;;;;5084180;28;20200;-81
2024/01/24 02:34:14;;;;;;;3.30;0.83;;;12.10;76.40;11.00;97077.00;;;;5081981;28;20241;-80
2024/01/24 02:36:41;;;;;;;0.10;0.10;;;12.10;76.20;11.10;97065.00;;;;5083240;28;20188;-81
2024/01/24 02:39:09;;;;;;;0.40;0.30;;;12.20;76.20;11.10;97064.00;;;;5084077;28;20230;-81
2024/01/24 02:41:41;;;;;;;0.30;0.20;;;12.20;76.10;11.20;97060.00;;;;5086222;28;20669;-81
2024/01/24 02:44:08;;;;;;;1.23;0.30;;;12.30;75.80;11.20;97051.00;;;;5084541;28;20219;-81
2024/01/24 02:46:35;;;;;;;0.30;0.10;;;12.30;75.80;11.30;97059.00;;;;5084577;28;20552;-81
2024/01/24 02:49:03;;;;;;;0.50;0.10;;;12.40;75.80;11.40;97046.00;;;;5089973;28;20238;-80
2024/01/24 02:51:30;;;;;;;0.60;0.10;;;12.40;75.90;11.40;97047.00;;;;5088726;28;20201;-81
2024/01/24 02:53:58;;;;;;;0.43;0.20;;;12.50;76.00;11.50;97055.00;;;;5086208;28;20436;-81
2024/01/24 02:56:26;;;;;;;0.80;0.30;;;12.50;75.80;11.60;97057.00;;;;5088824;28;20188;-81
2024/01/24 02:58:55;;;;;;;0.27;0.27;;;12.60;75.90;11.70;97054.00;;;;5089211;28;20288;-81
2024/01/24 03:01:22;;;;;;;0.40;0.20;;;12.70;75.70;11.70;97041.00;;;;5090053;28;20259;-81
2024/01/24 03:03:49;;;;;;;1.60;0.20;;;12.70;75.70;11.80;97045.00;;;;5089548;28;20268;-81
2024/01/24 03:06:17;;;;;;;0.63;0.20;;;12.80;75.80;11.90;97052.00;;;;5088703;28;20256;-81
2024/01/24 03:08:49;;;;;;;0.30;0.30;;;12.90;75.70;12.00;97057.00;;;;5093559;28;20215;-81
2024/01/24 03:11:16;;;;;;;0.60;0.17;;;13.00;75.30;12.10;97054.00;;;;5090975;28;20192;-81
2024/01/24 03:13:43;;;;;;;0.20;0.20;;;13.10;75.40;12.20;97036.00;;;;5094669;28;20200;-81
2024/01/24 03:16:12;;;;;;;0.83;0.10;;;13.10;75.10;12.20;97035.00;;;;5087003;28;20195;-81
2024/01/24 03:18:42;;;;;;;0.10;0.10;;;13.20;74.60;12.30;97045.00;;;;5080970;28;20208;-82
2024/01/24 03:21:17;;;;;;;0.77;0.30;;;13.30;74.50;12.30;97037.00;;;;5077916;28;20195;-82
2024/01/24 03:23:44;;;;;;;0.20;0.20;;;13.40;74.70;12.40;97029.00;;;;5081474;28;20259;-81
2024/01/24 03:26:13;;;;;;;4.60;0.77;;;13.40;74.20;12.40;97023.00;;;;5079572;28;20279;-81
2024/01/24 03:28:40;;;;;;;0.30;0.20;;;13.40;74.10;12.50;97018.00;;;;5081139;28;20218;-82
2024/01/24 03:31:07;;;;;;;1.13;0.40;;;13.50;74.10;12.50;97021.00;;;;5080699;28;20196;-81
2024/01/24 03:33:37;;;;;;;0.53;0.20;;;13.50;73.90;12.50;97022.00;;;;5082759;28;20250;-82
2024/01/24 03:36:06;;;;;;;0.27;0.20;;;13.50;73.60;12.50;97025.00;;;;5080591;28;20263;-81
2024/01/24 03:38:34;;;;;;;0.67;0.20;;;13.60;73.60;12.60;97027.00;;;;5063884;28;20222;-82
2024/01/24 03:41:01;;;;;;;0.47;0.47;;;13.60;73.50;12.60;97021.00;;;;5079185;28;20263;-81
2024/01/24 03:43:28;;;;;;;0.20;0.10;;;13.60;73.50;12.60;97031.00;;;;5075644;28;20196;-81
2024/01/24 03:45:56;;;;;;;0.50;0.37;;;13.70;73.40;12.70;97037.00;;;;5060371;28;20287;-82
2024/01/24 03:48:23;;;;;;;0.20;0.20;;;13.70;73.40;12.70;97034.00;;;;5077806;28;20208;-81
2024/01/24 03:50:52;;;;;;;0.83;0.23;;;13.70;73.30;12.70;97041.00;;;;5079573;28;20679;-81
2024/01/24 03:53:19;;;;;;;0.87;0.30;;;13.70;73.10;12.80;97045.00;;;;5082076;28;20218;-81
2024/01/24 03:55:47;;;;;;;0.30;0.20;;;13.80;73.30;12.80;97050.00;;;;5080988;28;20200;-82
2024/01/24 03:58:15;;;;;;;0.30;0.30;;;13.80;73.20;12.80;97049.00;;;;5080878;28;20193;-82
2024/01/24 04:00:44;;;;;;;1.30;0.20;;;13.90;73.20;12.90;97040.00;;;;5081892;28;20196;-82
2024/01/24 04:03:11;;;;;;;0.30;0.20;;;13.90;73.00;12.90;97041.00;;;;5085642;28;20259;-81
2024/01/24 04:05:42;;;;;;;0.70;0.10;;;13.90;72.90;12.90;97034.00;;;;5082163;28;20195;-82
2024/01/24 04:08:10;;;;;;;0.40;0.20;;;14.00;73.80;13.00;97026.00;;;;5083633;28;20183;-81
2024/01/24 04:10:37;;;;;;;1.23;0.20;;;14.00;72.90;13.00;97022.00;;;;5077856;28;20304;-82
2024/01/24 04:13:05;;;;;;;0.10;0.10;;;14.00;73.00;13.00;97036.00;;;;5080595;28;20682;-80
2024/01/24 04:15:32;;;;;;;0.63;0.33;;;14.10;72.90;13.10;97034.00;;;;5083396;28;20184;-82
2024/01/24 04:18:01;;;;;;;1.03;0.23;;;14.10;72.70;13.10;97027.00;;;;5081337;28;20671;-82
2024/01/24 04:20:29;;;;;;;7.70;0.50;;;14.10;72.40;13.10;97022.00;;;;5083882;28;20216;-82
2024/01/24 04:22:56;;;;;;;0.40;0.20;;;14.20;72.70;13.10;97024.00;;;;5077037;28;20217;-82
2024/01/24 04:25:25;;;;;;;4.80;0.30;;;14.20;72.60;13.20;97040.00;;;;5076631;28;20909;-82
2024/01/24 04:27:52;;;;;;;0.10;0.10;;;14.20;72.30;13.20;97033.00;;;;5073218;28;20192;-82
2024/01/24 04:30:22;;;;;;;0.40;0.20;;;14.20;72.30;13.20;97021.00;;;;5076220;28;20681;-81
2024/01/24 04:32:51;;;;;;;0.20;0.10;;;14.20;72.20;13.20;97023.00;;;;5074239;28;20607;-82
2024/01/24 04:35:19;;;;;;;0.50;0.20;;;14.20;72.10;13.20;97030.00;;;;5069322;28;20290;-82
2024/01/24 04:37:46;;;;;;;0.60;0.30;;;14.20;72.20;13.20;97027.00;;;;5080903;28;20212;-81
2024/01/24 04:40:14;;;;;;;0.50;0.20;;;14.20;72.30;13.20;97023.00;;;;5080171;28;20223;-82
2024/01/24 04:42:46;;;;;;;0.30;0.30;;;14.20;72.30;13.20;97018.00;;;;5087177;28;20196;-81
2024/01/24 04:45:15;;;;;;;0.33;0.30;;;14.30;72.20;13.30;97006.00;;;;5081462;28;20184;-82
2024/01/24 04:47:45;;;;;;;0.23;0.20;;;14.30;72.50;13.30;97021.00;;;;5082541;28;20259;-81
2024/01/24 04:50:13;;;;;;;0.73;0.20;;;14.30;72.40;13.30;97020.00;;;;5083235;28;20687;-81
2024/01/24 04:52:41;;;;;;;0.40;0.30;;;14.30;72.40;13.30;97024.00;;;;5083726;28;20211;-82
2024/01/24 04:55:12;;;;;;;0.70;0.20;;;14.30;72.40;13.30;97034.00;;;;5082121;28;20246;-82
2024/01/24 04:57:41;;;;;;;1.17;0.30;;;14.40;72.30;13.40;97014.00;;;;5085904;28;20284;-82
2024/01/24 05:00:11;;;;;;;0.43;0.40;;;14.40;72.70;13.40;97023.00;;;;5085097;28;20226;-81
2024/01/24 05:02:39;;;;;;;0.50;0.37;;;14.40;72.50;13.40;97032.00;;;;5074698;28;20207;-82
2024/01/24 05:05:08;;;;;;;1.00;0.30;;;14.40;72.60;13.50;97022.00;;;;5087678;28;20287;-82
2024/01/24 05:07:36;;;;;;;1.03;0.40;;;14.50;72.60;13.50;97029.00;;;;5087642;28;20187;-82
2024/01/24 05:10:07;;;;;;;0.50;0.20;;;14.50;72.60;13.50;97032.00;;;;5084476;28;20207;-81
2024/01/24 05:12:35;;;;;;;0.23;0.17;;;14.50;72.60;13.60;97032.00;;;;5085721;28;20939;-82
2024/01/24 05:15:06;;;;;;;0.30;0.10;;;14.60;72.50;13.60;97034.00;;;;5087422;28;20237;-81
2024/01/24 05:17:34;;;;;;;1.37;0.20;;;14.60;72.30;13.60;97040.00;;;;5087636;28;20184;-81
2024/01/24 05:20:01;;;;;;;0.40;0.40;;;14.60;72.40;13.60;97042.00;;;;5094234;28;20207;-81
2024/01/24 05:22:29;;;;;;;1.43;0.20;;;14.60;72.30;13.70;97037.00;;;;5094466;28;20204;-81
2024/01/24 05:24:57;;;;;;;0.70;0.37;;;14.70;72.40;13.70;97040.00;;;;5093482;28;20195;-80
2024/01/24 05:27:24;;;;;;;0.90;0.50;;;14.70;72.30;13.70;97035.00;;;;5088773;28;20184;-81
2024/01/24 05:29:52;;;;;;;1.17;0.30;;;14.70;72.20;13.80;97027.00;;;;5083790;28;20778;-81
2024/01/24 05:32:21;;;;;;;1.70;0.30;;;14.70;72.20;13.80;97033.00;;;;5085219;28;20195;-81
2024/01/24 05:34:49;;;;;;;0.67;0.27;;;14.70;71.90;13.80;97026.00;;;;5081178;28;20630;-81
2024/01/24 05:37:16;;;;;;;0.40;0.30;;;14.80;72.00;13.80;97029.00;;;;5082096;28;20187;-80
2024/01/24 05:39:43;;;;;;;0.30;0.30;;;14.80;72.00;13.80;97027.00;;;;5085804;28;20215;-81
2024/01/24 05:42:11;;;;;;;0.83;0.30;;;14.80;72.00;13.90;97030.00;;;;5086436;28;20200;-81
2024/01/24 05:44:39;;;;;;;0.60;0.30;;;14.80;71.90;13.90;97032.00;;;;5088217;28;20207;-80
2024/01/24 05:47:07;;;;;;;0.43;0.20;;;14.80;71.80;13.90;97040.00;;;;5089708;28;20226;-80
2024/01/24 05:49:38;;;;;;;0.57;0.30;;;14.80;71.70;13.90;97035.00;;;;5089757;28;20215;-81
2024/01/24 05:52:06;;;;;;;0.20;0.13;;;14.80;71.40;13.90;97022.00;;;;5086776;28;20202;-80
2024/01/24 05:54:34;;;;;;;0.40;0.30;;;14.80;71.60;13.80;97016.00;;;;5080193;28;20211;-81
2024/01/24 05:57:01;;;;;;;0.20;0.20;;;14.80;71.70;13.80;97036.00;;;;5070688;28;20196;-81
2024/01/24 05:59:28;;;;;;;0.40;0.30;;;14.80;71.70;13.80;97022.00;;;;5086799;28;20211;-80
2024/01/24 06:01:56;;;;;;;0.20;0.20;;;14.80;71.90;13.90;97016.00;;;;5086887;28;20203;-81
2024/01/24 06:04:23;;;;;;;0.87;0.20;;;14.80;71.90;13.80;97018.00;;;;5089504;28;20210;-81
2024/01/24 06:06:54;;;;;;;0.30;0.27;;;14.80;71.80;13.80;97035.00;;;;5092856;28;20188;-81
2024/01/24 06:09:24;;;;;;;0.10;0.10;;;14.80;71.80;13.80;97013.00;;;;5090472;28;20235;-81
2024/01/24 06:11:52;;;;;;;0.33;0.20;;;14.80;72.00;13.90;97023.00;;;;5082782;28;20218;-80
2024/01/24 06:14:19;;;;;;;0.40;0.30;;;14.90;72.00;13.90;97032.00;;;;5085650;28;20229;-80
2024/01/24 06:16:48;;;;;;;0.40;0.40;;;14.90;72.10;13.90;97030.00;;;;5088037;28;20184;-80
2024/01/24 06:19:15;;;;;;;0.80;0.43;;;14.80;72.80;13.90;97021.00;;;;5090563;28;20212;-80
2024/01/24 06:21:48;;;;;;;0.40;0.20;;;14.90;72.30;13.90;97025.00;;;;5085896;28;20237;-81
2024/01/24 06:24:17;;;;;;;1.47;0.20;;;14.90;72.30;14.00;97020.00;;;;5081522;28;20208;-81
2024/01/24 06:26:45;;;;;;;3.90;0.30;;;14.90;72.30;14.00;97026.00;;;;5082722;28;20202;-81
2024/01/24 06:29:13;;;;;;;1.60;0.40;;;15.00;72.50;14.00;97025.00;;;;5083187;28;20212;-81
2024/01/24 06:31:40;;;;;;;0.30;0.20;;;15.00;72.40;14.10;97020.00;;;;5081977;28;20212;-80
2024/01/24 06:34:08;;;;;;;1.70;0.30;;;15.00;72.40;14.10;97034.00;;;;5083246;28;20218;-80
2024/01/24 06:36:35;;;;;;;0.17;0.17;;;15.00;72.30;14.20;97022.00;;;;5084316;28;20192;-81
2024/01/24 06:39:02;;;;;;;0.50;0.30;;;15.10;72.60;14.20;97020.00;;;;5085131;28;20265;-81
2024/01/24 06:41:31;;;;;;;1.33;0.40;;;15.10;72.60;14.20;97018.00;;;;5089095;28;20199;-81
2024/01/24 06:43:58;;;;;;;0.30;0.23;;;15.20;72.60;14.30;97026.00;;;;5085996;28;20180;-80
2024/01/24 06:46:27;;;;;;;0.73;0.60;;;15.20;72.60;14.40;97030.00;;;;5086565;28;20263;-81
2024/01/24 06:48:55;;;;;;;0.60;0.43;;;15.30;72.70;14.40;97023.00;;;;5067896;28;20627;-80
2024/01/24 06:51:22;;;;;;;0.50;0.33;;;15.30;72.60;14.50;97017.00;;;;5068251;28;20227;-80
2024/01/24 06:53:49;;;;;;;0.90;0.40;;;15.40;72.50;14.50;97028.00;;;;5090353;28;20226;-80
2024/01/24 06:56:17;;;;;;;1.17;0.60;;;15.40;72.30;14.60;97028.00;;;;5084276;28;20195;-81
2024/01/24 06:58:46;;;;;;;1.33;0.40;;;15.50;72.40;14.60;97018.00;;;;5084761;28;20223;-81
2024/01/24 07:01:16;;;;;;;0.43;0.30;;;15.50;72.30;14.60;97021.00;;;;5086732;28;20188;-81
2024/01/24 07:03:43;;;;;;;0.40;0.30;;;15.50;72.40;14.60;97036.00;;;;5088165;28;20196;-80
2024/01/24 07:06:10;;;;;;;1.17;0.30;;;15.60;72.20;14.70;97060.00;;;;5087486;28;20200;-80
2024/01/24 07:08:40;;;;;;;1.07;0.40;;;15.60;72.20;14.70;97050.00;;;;5087564;28;20212;-80
2024/01/24 07:11:09;;;;;;;0.17;0.10;;;15.60;72.00;14.70;97027.00;;;;5086380;28;20200;-80
2024/01/24 07:13:39;;;;;;;0.30;0.30;;;15.70;72.20;14.70;97036.00;;;;5088291;28;20184;-80
2024/01/24 07:16:11;;;;;;;0.27;0.20;;;15.70;72.10;14.80;97047.00;;;;5088529;28;20192;-81
2024/01/24 07:18:39;;;;;;;0.30;0.30;;;15.70;71.90;14.80;97052.00;;;;5089017;28;20226;-80
2024/01/24 07:21:08;;;;;;;0.70;0.40;;;15.70;72.20;14.80;97045.00;;;;5088784;28;20184;-80
2024/01/24 07:23:35;;;;;;;0.87;0.40;;;15.80;72.10;14.80;97062.00;;;;5090039;28;20210;-80
2024/01/24 07:26:04;;;;;;;1.30;0.37;;;15.80;72.00;14.90;97065.00;;;;5090214;28;20221;-80
2024/01/24 07:28:32;;;;;;;1.37;0.30;;;15.80;72.00;14.90;97066.00;;;;5096741;28;20200;-80
2024/01/24 07:30:59;;;;;;;1.23;0.20;;;15.80;72.60;14.90;97070.00;;;;5095706;28;20207;-80
2024/01/24 07:33:28;;;;;;;0.50;0.20;;;15.80;72.00;14.90;97076.00;;;;5096274;28;20267;-80
2024/01/24 07:35:56;;;;;;;0.20;0.13;;;15.80;71.90;14.90;97032.00;;;;5100220;28;20191;-80
2024/01/24 07:38:23;;;;;;;0.50;0.27;;;15.90;71.90;15.00;97023.00;;;;5093733;28;20199;-81
2024/01/24 07:40:51;;;;;;;0.40;0.40;;;15.90;72.00;15.00;97018.00;;;;5080722;28;20287;-81
2024/01/24 07:43:21;;;;;;;1.00;0.40;;;15.90;71.90;15.00;97000.00;;;;5081212;28;20192;-81
2024/01/24 07:45:48;;;;;;;0.40;0.30;;;15.90;71.80;15.00;97015.00;;;;5077026;28;20711;-81
2024/01/24 07:48:15;;;;;;;1.20;0.47;;;16.00;71.80;15.00;97020.00;;;;5077800;28;20187;-81
2024/01/24 07:50:44;;;;;;;1.67;0.50;;;16.00;71.80;15.10;97016.00;;;;5078866;28;20212;-81
2024/01/24 07:53:13;;;;;;;7.93;0.90;;;16.00;71.70;15.10;97004.00;;;;5080625;28;20184;-81
2024/01/24 07:55:42;;;;;;;1.80;0.30;;;16.00;71.90;15.10;97000.00;;;;5077762;28;20695;-81
2024/01/24 07:58:12;;;;;;;1.23;0.30;;;16.10;71.80;15.10;97011.00;;;;5081919;28;20194;-81
2024/01/24 08:00:39;;;;;;;0.40;0.40;;;16.10;71.60;15.20;97021.00;;;;5082897;28;20669;-81
2024/01/24 08:03:07;;;;;;;0.37;0.37;;;16.10;71.70;15.20;97018.00;;;;5082949;28;20188;-81
2024/01/24 08:05:35;;;;;;;0.67;0.30;;;16.10;71.50;15.20;97034.00;;;;5083163;28;20184;-82
2024/01/24 08:08:04;;;;;;;1.80;0.50;;;16.10;71.50;15.30;97011.00;;;;5079766;28;20202;-81
2024/01/24 08:10:32;;;;;;;1.60;0.70;;;16.20;71.40;15.30;97001.00;;;;5080244;28;20243;-81
2024/01/24 08:13:00;;;;;;;1.23;0.40;;;16.20;71.40;15.30;96996.00;;;;5083471;28;20184;-81
2024/01/24 08:15:28;;;;;;;3.60;0.63;;;16.20;71.30;15.40;97008.00;;;;5085815;28;20210;-80
2024/01/24 08:17:55;;;;;;;0.30;0.30;;;16.30;71.40;15.40;97008.00;;;;5081558;28;20226;-80
2024/01/24 08:20:25;;;;;;;0.27;0.20;;;16.30;71.20;15.50;96991.00;;;;5085367;28;20736;-80
2024/01/24 08:22:53;;;;;;;9.67;0.93;;;16.40;71.10;15.50;97016.00;;;;5083581;28;20259;-80
2024/01/24 08:25:23;;;;;;;0.40;0.40;;;16.40;71.20;15.50;97023.00;;;;5079665;28;20757;-80
2024/01/24 08:27:52;;;;;;;0.77;0.23;;;16.40;71.10;15.50;96999.00;;;;5082797;28;20188;-81
2024/01/24 08:30:20;;;;;;;0.60;0.30;;;16.50;71.10;15.60;97008.00;;;;5078447;28;20238;-81
2024/01/24 08:32:51;;;;;;;0.20;0.20;;;16.50;70.90;15.60;97003.00;;;;5069930;28;20615;-81
2024/01/24 08:35:19;;;;;;;1.50;0.30;;;16.50;70.90;15.60;96987.00;;;;5078984;28;20238;-81
2024/01/24 08:37:50;;;;;;;0.90;0.30;;;16.50;71.20;15.70;96980.00;;;;5080912;28;20195;-81
2024/01/24 08:40:21;;;;;;;0.90;0.47;;;16.60;71.10;15.70;96983.00;;;;5079367;28;20208;-81
2024/01/24 08:43:02;;;;;;;0.57;0.57;;;16.60;71.00;15.70;96976.00;;;;5079452;28;20700;-81
2024/01/24 08:45:29;;;;;;;1.80;0.30;;;16.60;70.00;15.70;96996.00;;;;5079181;28;20188;-81
2024/01/24 08:47:57;;;;;;;0.40;0.27;;;16.70;71.10;15.80;96958.00;;;;5079495;28;20676;-81
2024/01/24 08:50:24;;;;;;;0.60;0.20;;;16.70;70.80;15.80;96952.00;;;;5083480;28;20250;-81
2024/01/24 08:52:52;;;;;;;1.67;0.30;;;16.70;70.60;15.80;96974.00;;;;5082310;28;20214;-81
2024/01/24 08:55:20;;;;;;;0.57;0.20;;;16.80;70.80;15.90;96985.00;;;;5081708;28;20194;-81
2024/01/24 08:57:48;;;;;;;5.30;0.53;;;16.80;70.60;15.90;96974.00;;;;5086654;28;20665;-81
2024/01/24 09:00:18;;;;;;;0.90;0.30;;;16.80;70.40;15.90;96964.00;;;;5086451;28;20583;-81
2024/01/24 09:02:49;;;;;;;0.43;0.30;;;16.80;70.50;16.00;96975.00;;;;5069762;28;20652;-81
2024/01/24 09:05:20;;;;;;;0.87;0.40;;;16.90;70.30;16.00;96976.00;;;;5086342;28;20180;-81
2024/01/24 09:07:48;;;;;;;0.53;0.30;;;16.90;70.30;16.00;96984.00;;;;5087218;28;20191;-81
2024/01/24 09:10:17;;;;;;;0.70;0.30;;;16.90;70.50;16.00;96990.00;;;;5086033;28;20212;-80
2024/01/24 09:12:44;;;;;;;2.10;0.30;;;16.90;71.30;16.10;96975.00;;;;5088348;28;20241;-81
2024/01/24 09:15:11;;;;;;;0.20;0.20;;;17.00;70.50;16.10;96996.00;;;;5087465;28;20188;-81
2024/01/24 09:17:40;;;;;;;0.40;0.30;;;17.00;70.60;16.10;97003.00;;;;5087725;28;20529;-80
2024/01/24 09:20:09;;;;;;;0.70;0.40;;;17.00;70.50;16.10;97009.00;;;;5087999;28;20212;-81
2024/01/24 09:22:36;;;;;;;0.40;0.40;;;17.00;70.50;16.10;96998.00;;;;5090780;28;20187;-81
2024/01/24 09:25:04;;;;;;;0.20;0.10;;;17.10;70.50;16.20;96991.00;;;;5091311;28;20188;-81
2024/01/24 09:27:32;;;;;;;1.50;0.40;;;17.10;70.30;16.20;96989.00;;;;5091947;28;20192;-80
2024/01/24 09:29:59;;;;;;;0.20;0.17;;;17.10;71.10;16.20;96973.00;;;;5092840;28;20245;-80
2024/01/24 09:32:27;;;;;;;1.23;0.47;;;17.10;70.30;16.30;96971.00;;;;5093425;28;20231;-81
2024/01/24 09:34:55;;;;;;;0.40;0.40;;;17.20;70.30;16.40;96979.00;;;;5076076;28;20215;-81
2024/01/24 09:37:22;;;;;;;0.37;0.30;;;17.20;70.10;16.40;96978.00;;;;5094376;28;20250;-80
2024/01/24 09:39:52;;;;;;;0.43;0.40;;;17.20;70.10;16.50;96974.00;;;;5097914;28;20222;-80
2024/01/24 09:42:21;;;;;;;1.50;0.47;;;17.30;70.20;16.60;96981.00;;;;5095143;28;20187;-81
2024/01/24 09:44:49;;;;;;;0.90;0.33;;;17.40;70.80;16.60;96980.00;;;;5083162;28;20203;-81
2024/01/24 09:47:18;;;;;;;0.27;0.27;;;17.40;70.10;16.70;96988.00;;;;5079700;28;20192;-81
2024/01/24 09:49:45;;;;;;;0.20;0.20;;;17.50;69.90;16.70;97006.00;;;;5058153;28;20308;-81
2024/01/24 09:52:17;;;;;;;1.10;0.40;;;17.50;69.70;16.80;96999.00;;;;5095831;28;20265;-81
2024/01/24 09:54:46;;;;;;;0.53;0.20;;;17.60;69.50;16.80;96985.00;;;;5078085;28;20679;-81
2024/01/24 09:57:14;;;;;;;4.90;0.77;;;17.60;69.40;16.90;97027.00;;;;5079030;28;20217;-81
2024/01/24 09:59:43;;;;;;;2.63;0.20;;;17.70;69.50;16.90;97007.00;;;;5079395;28;20212;-81
2024/01/24 10:02:12;;;;;;;1.10;0.40;;;17.70;69.40;17.00;97029.00;;;;5081258;28;20188;-81
2024/01/24 10:04:41;;;;;;;0.10;0.10;;;17.80;69.20;17.00;97035.00;;;;5080413;28;20192;-81
2024/01/24 10:07:09;;;;;;;0.57;0.40;;;17.80;69.00;17.10;97025.00;;;;5079961;28;20191;-80
2024/01/24 10:09:38;;;;;;;0.20;0.20;;;17.90;68.90;17.10;97045.00;;;;5074765;28;20209;-81
2024/01/24 10:12:08;;;;;;;0.57;0.20;;;17.90;68.60;17.10;97022.00;;;;5077942;28;20204;-80
2024/01/24 10:14:35;;;;;;;0.97;0.47;;;17.90;68.50;17.20;97036.00;;;;5080384;28;20192;-80
2024/01/24 10:17:07;;;;;;;0.67;0.40;;;18.00;68.70;17.20;97023.00;;;;5074732;28;20246;-81
2024/01/24 10:19:34;;;;;;;1.90;0.33;;;18.00;68.40;17.30;97008.00;;;;5080012;28;20242;-80
2024/01/24 10:22:02;;;;;;;0.40;0.40;;;18.10;68.70;17.30;97006.00;;;;5085888;28;20184;-81
2024/01/24 10:24:31;;;;;;;0.87;0.20;;;18.10;68.40;17.30;97023.00;;;;5068630;28;20200;-81
2024/01/24 10:27:00;;;;;;;0.40;0.20;;;18.10;68.20;17.30;97026.00;;;;5086219;28;20195;-81
2024/01/24 10:29:27;;;;;;;0.40;0.20;;;18.10;67.90;17.30;96992.00;;;;5085539;28;20220;-81
2024/01/24 10:31:56;;;;;;;0.67;0.40;;;18.20;68.10;17.30;96997.00;;;;5085316;28;20211;-81
2024/01/24 10:34:28;;;;;;;1.27;0.30;;;18.20;67.70;17.30;96999.00;;;;5089151;28;20220;-81
2024/01/24 10:36:56;;;;;;;0.90;0.60;;;18.20;67.50;17.40;97013.00;;;;5080758;28;20199;-81
2024/01/24 10:39:28;;;;;;;0.40;0.30;;;18.20;67.90;17.40;96981.00;;;;5085156;28;20296;-81
2024/01/24 10:41:57;;;;;;;1.00;0.30;;;18.20;67.80;17.50;97001.00;;;;5088199;28;20200;-81
2024/01/24 10:44:28;;;;;;;0.30;0.30;;;18.30;68.20;17.50;96983.00;;;;5087630;28;20219;-81
2024/01/24 10:46:56;;;;;;;0.50;0.30;;;18.30;68.40;17.60;96980.00;;;;5089087;28;20195;-80
2024/01/24 10:49:25;;;;;;;2.77;0.40;;;18.40;68.10;17.70;96979.00;;;;5086016;28;20279;-81
2024/01/24 10:51:53;;;;;;;0.93;0.20;;;18.50;68.10;17.80;96983.00;;;;5089280;28;20216;-81
2024/01/24 10:54:22;;;;;;;0.30;0.30;;;18.50;68.00;17.80;96977.00;;;;5086054;28;20227;-81
2024/01/24 10:56:51;;;;;;;2.10;0.30;;;18.60;67.70;17.80;97001.00;;;;5088477;28;20189;-81
2024/01/24 10:59:20;;;;;;;0.20;0.20;;;18.60;67.60;17.90;96976.00;;;;5088936;28;20277;-81